sensor_id;sensor_type;location;lat;lon;timestamp;pressure;altitude;pressure_sealevel;temperature;humidity
6216;BME280;3141;49.234;9.326;2023-02-03T00:00:04;100889.53;;;9.75;74.31
6216;BME280;3141;49.234;9.326;2023-02-03T00:00:47;100875.00;;;9.69;74.39
6216;BME280;3141;49.234;9.326;2023-02-03T00:01:29;100887.97;;;9.72;74.28
6216;BME280;3141;49.234;9.326;2023-02-03T00:02:11;100890.13;;;9.56;74.84
6216;BME280;3141;49.234;9.326;2023-02-03T00:02:54;100862.66;;;9.48;75.19
6216;BME280;3141;49.234;9.326;2023-02-03T00:03:36;100886.19;;;9.51;75.43
6216;BME280;3141;49.234;9.326;2023-02-03T00:04:19;100884.97;;;9.66;75.28
6216;BME280;3141;49.234;9.326;2023-02-03T00:05:01;100880.41;;;9.68;74.96
6216;BME280;3141;49.234;9.326;2023-02-03T00:05:44;100870.59;;;9.70;74.46
6216;BME280;3141;49.234;9.326;2023-02-03T00:06:30;100867.22;;;9.68;74.77
6216;BME280;3141;49.234;9.326;2023-02-03T00:07:12;100874.31;;;9.78;74.28
6216;BME280;3141;49.234;9.326;2023-02-03T00:07:55;100875.38;;;9.76;74.35
6216;BME280;3141;49.234;9.326;2023-02-03T00:08:38;100875.34;;;9.65;74.38
6216;BME280;3141;49.234;9.326;2023-02-03T00:09:21;100869.72;;;9.58;74.91
6216;BME280;3141;49.234;9.326;2023-02-03T00:10:03;100868.03;;;9.68;74.67
6216;BME280;3141;49.234;9.326;2023-02-03T00:10:46;100875.34;;;9.65;74.95
6216;BME280;3141;49.234;9.326;2023-02-03T00:11:29;100872.72;;;9.65;74.85
6216;BME280;3141;49.234;9.326;2023-02-03T00:12:12;100883.06;;;9.68;74.92
6216;BME280;3141;49.234;9.326;2023-02-03T00:12:55;100879.22;;;9.61;75.28
6216;BME280;3141;49.234;9.326;2023-02-03T00:13:38;100878.38;;;9.71;74.79
6216;BME280;3141;49.234;9.326;2023-02-03T00:14:21;100878.00;;;9.87;74.35
6216;BME280;3141;49.234;9.326;2023-02-03T00:15:03;100883.28;;;9.87;73.88
6216;BME280;3141;49.234;9.326;2023-02-03T00:15:46;100883.88;;;9.79;74.28
6216;BME280;3141;49.234;9.326;2023-02-03T00:16:28;100879.19;;;9.72;74.69
6216;BME280;3141;49.234;9.326;2023-02-03T00:17:10;100885.69;;;9.68;74.78
6216;BME280;3141;49.234;9.326;2023-02-03T00:17:53;100880.78;;;9.85;74.34
6216;BME280;3141;49.234;9.326;2023-02-03T00:18:35;100880.06;;;9.83;73.98
6216;BME280;3141;49.234;9.326;2023-02-03T00:19:18;100878.13;;;9.74;74.47
6216;BME280;3141;49.234;9.326;2023-02-03T00:20:00;100876.56;;;9.83;74.26
6216;BME280;3141;49.234;9.326;2023-02-03T00:20:42;100881.59;;;9.86;73.59
6216;BME280;3141;49.234;9.326;2023-02-03T00:21:25;100883.28;;;9.87;74.12
6216;BME280;3141;49.234;9.326;2023-02-03T00:22:07;100886.19;;;9.73;74.25
6216;BME280;3141;49.234;9.326;2023-02-03T00:22:49;100889.28;;;9.78;74.28
6216;BME280;3141;49.234;9.326;2023-02-03T00:23:33;100891.72;;;9.70;74.24
6216;BME280;3141;49.234;9.326;2023-02-03T00:24:15;100888.94;;;9.71;74.98
6216;BME280;3141;49.234;9.326;2023-02-03T00:24:59;100892.66;;;9.80;74.58
6216;BME280;3141;49.234;9.326;2023-02-03T00:25:42;100886.66;;;9.78;74.61
6216;BME280;3141;49.234;9.326;2023-02-03T00:26:24;100908.97;;;9.74;74.70
6216;BME280;3141;49.234;9.326;2023-02-03T00:27:09;100895.06;;;9.61;75.08
6216;BME280;3141;49.234;9.326;2023-02-03T00:27:51;100894.81;;;9.64;75.23
6216;BME280;3141;49.234;9.326;2023-02-03T00:28:34;100891.09;;;9.66;74.83
6216;BME280;3141;49.234;9.326;2023-02-03T00:29:16;100896.13;;;9.69;75.05
6216;BME280;3141;49.234;9.326;2023-02-03T00:29:59;100890.13;;;9.67;74.97
6216;BME280;3141;49.234;9.326;2023-02-03T00:30:42;100886.53;;;9.79;74.60
6216;BME280;3141;49.234;9.326;2023-02-03T00:31:24;100891.19;;;9.65;74.85
6216;BME280;3141;49.234;9.326;2023-02-03T00:32:06;100879.66;;;9.77;74.79
6216;BME280;3141;49.234;9.326;2023-02-03T00:32:48;100881.59;;;9.86;74.47
6216;BME280;3141;49.234;9.326;2023-02-03T00:33:31;100872.59;;;9.77;74.43
6216;BME280;3141;49.234;9.326;2023-02-03T00:34:14;100873.44;;;9.78;74.45
6216;BME280;3141;49.234;9.326;2023-02-03T00:34:57;100868.41;;;9.75;74.86
6216;BME280;3141;49.234;9.326;2023-02-03T00:35:39;100860.03;;;9.70;75.00
6216;BME280;3141;49.234;9.326;2023-02-03T00:36:22;100867.19;;;9.79;74.42
6216;BME280;3141;49.234;9.326;2023-02-03T00:37:05;100855.72;;;9.58;75.10
6216;BME280;3141;49.234;9.326;2023-02-03T00:37:51;100863.72;;;9.67;75.14
6216;BME280;3141;49.234;9.326;2023-02-03T00:38:34;100863.47;;;9.81;74.82
6216;BME280;3141;49.234;9.326;2023-02-03T00:39:16;100874.16;;;9.69;75.26
6216;BME280;3141;49.234;9.326;2023-02-03T00:39:59;100862.75;;;9.68;75.61
6216;BME280;3141;49.234;9.326;2023-02-03T00:40:41;100866.72;;;9.74;75.23
6216;BME280;3141;49.234;9.326;2023-02-03T00:41:28;100860.63;;;9.73;75.40
6216;BME280;3141;49.234;9.326;2023-02-03T00:42:10;100869.84;;;9.79;75.19
6216;BME280;3141;49.234;9.326;2023-02-03T00:42:53;100880.03;;;9.72;75.09
6216;BME280;3141;49.234;9.326;2023-02-03T00:43:35;100886.91;;;9.64;75.36
6216;BME280;3141;49.234;9.326;2023-02-03T00:44:18;100885.06;;;9.75;75.10
6216;BME280;3141;49.234;9.326;2023-02-03T00:45:01;100888.34;;;9.57;75.22
6216;BME280;3141;49.234;9.326;2023-02-03T00:45:43;100882.81;;;9.60;75.61
6216;BME280;3141;49.234;9.326;2023-02-03T00:46:26;100889.03;;;9.48;76.41
6216;BME280;3141;49.234;9.326;2023-02-03T00:47:08;100891.94;;;9.56;76.08
6216;BME280;3141;49.234;9.326;2023-02-03T00:47:50;100878.75;;;9.56;75.92
6216;BME280;3141;49.234;9.326;2023-02-03T00:48:32;100879.31;;;9.70;75.56
6216;BME280;3141;49.234;9.326;2023-02-03T00:49:15;100866.97;;;9.71;75.53
6216;BME280;3141;49.234;9.326;2023-02-03T00:49:57;100872.00;;;9.74;75.50
6216;BME280;3141;49.234;9.326;2023-02-03T00:50:39;100876.22;;;9.65;75.86
6216;BME280;3141;49.234;9.326;2023-02-03T00:51:22;100874.16;;;9.69;75.43
6216;BME280;3141;49.234;9.326;2023-02-03T00:52:04;100867.34;;;9.55;75.97
6216;BME280;3141;49.234;9.326;2023-02-03T00:52:46;100866.50;;;9.55;75.86
6216;BME280;3141;49.234;9.326;2023-02-03T00:53:29;100873.69;;;9.64;75.78
6216;BME280;3141;49.234;9.326;2023-02-03T00:54:11;100860.88;;;9.59;75.76
6216;BME280;3141;49.234;9.326;2023-02-03T00:54:54;100860.38;;;9.65;75.80
6216;BME280;3141;49.234;9.326;2023-02-03T00:55:37;100856.88;;;9.65;75.95
6216;BME280;3141;49.234;9.326;2023-02-03T00:56:19;100853.91;;;9.69;75.61
6216;BME280;3141;49.234;9.326;2023-02-03T00:57:01;100850.91;;;9.52;76.01
6216;BME280;3141;49.234;9.326;2023-02-03T00:57:43;100842.25;;;9.61;76.10
6216;BME280;3141;49.234;9.326;2023-02-03T00:58:26;100847.50;;;9.72;75.90
6216;BME280;3141;49.234;9.326;2023-02-03T00:59:08;100841.78;;;9.45;76.04
6216;BME280;3141;49.234;9.326;2023-02-03T00:59:51;100836.72;;;9.53;76.30
6216;BME280;3141;49.234;9.326;2023-02-03T01:00:33;100836.50;;;9.56;76.42
6216;BME280;3141;49.234;9.326;2023-02-03T01:01:15;100840.22;;;9.53;76.16
6216;BME280;3141;49.234;9.326;2023-02-03T01:01:58;100833.13;;;9.43;76.45
6216;BME280;3141;49.234;9.326;2023-02-03T01:02:40;100846.59;;;9.51;77.02
6216;BME280;3141;49.234;9.326;2023-02-03T01:03:22;100854.84;;;9.68;76.33
6216;BME280;3141;49.234;9.326;2023-02-03T01:04:05;100849.34;;;9.71;75.93
6216;BME280;3141;49.234;9.326;2023-02-03T01:04:47;100857.47;;;9.68;76.14
6216;BME280;3141;49.234;9.326;2023-02-03T01:05:30;100857.72;;;9.65;75.83
6216;BME280;3141;49.234;9.326;2023-02-03T01:06:15;100856.19;;;9.63;76.25
6216;BME280;3141;49.234;9.326;2023-02-03T01:06:58;100857.13;;;9.73;75.78
6216;BME280;3141;49.234;9.326;2023-02-03T01:07:41;100858.56;;;9.66;76.04
6216;BME280;3141;49.234;9.326;2023-02-03T01:08:23;100861.56;;;9.61;75.94
6216;BME280;3141;49.234;9.326;2023-02-03T01:09:05;100866.97;;;9.71;76.14
6216;BME280;3141;49.234;9.326;2023-02-03T01:09:48;100869.03;;;9.78;75.57
6216;BME280;3141;49.234;9.326;2023-02-03T01:10:30;100865.16;;;9.82;75.55
6216;BME280;3141;49.234;9.326;2023-02-03T01:11:21;100867.66;;;9.84;75.77
6216;BME280;3141;49.234;9.326;2023-02-03T01:12:04;100881.59;;;9.86;74.92
6216;BME280;3141;49.234;9.326;2023-02-03T01:12:46;100867.22;;;9.68;75.48
6216;BME280;3141;49.234;9.326;2023-02-03T01:13:28;100872.47;;;9.79;75.52
6216;BME280;3141;49.234;9.326;2023-02-03T01:14:10;100870.56;;;9.81;75.77
6216;BME280;3141;49.234;9.326;2023-02-03T01:14:53;100868.88;;;9.69;75.87
6216;BME280;3141;49.234;9.326;2023-02-03T01:15:35;100870.56;;;9.81;75.45
6216;BME280;3141;49.234;9.326;2023-02-03T01:16:19;100862.97;;;9.87;75.27
6216;BME280;3141;49.234;9.326;2023-02-03T01:17:01;100867.06;;;9.80;75.50
6216;BME280;3141;49.234;9.326;2023-02-03T01:17:44;100860.63;;;9.73;75.72
6216;BME280;3141;49.234;9.326;2023-02-03T01:18:26;100854.97;;;9.78;75.36
6216;BME280;3141;49.234;9.326;2023-02-03T01:19:08;100851.34;;;9.79;75.46
6216;BME280;3141;49.234;9.326;2023-02-03T01:19:51;100850.50;;;9.89;75.16
6216;BME280;3141;49.234;9.326;2023-02-03T01:20:34;100843.88;;;9.95;74.70
6216;BME280;3141;49.234;9.326;2023-02-03T01:21:19;100847.13;;;9.98;74.68
6216;BME280;3141;49.234;9.326;2023-02-03T01:22:01;100851.09;;;9.93;74.83
6216;BME280;3141;49.234;9.326;2023-02-03T01:22:44;100860.00;;;9.92;74.80
6216;BME280;3141;49.234;9.326;2023-02-03T01:23:26;100861.69;;;9.82;75.54
6216;BME280;3141;49.234;9.326;2023-02-03T01:24:08;100857.34;;;9.81;75.42
6216;BME280;3141;49.234;9.326;2023-02-03T01:24:51;100862.16;;;9.87;75.30
6216;BME280;3141;49.234;9.326;2023-02-03T01:25:34;100850.50;;;9.89;75.60
6216;BME280;3141;49.234;9.326;2023-02-03T01:26:19;100852.47;;;10.08;74.60
6216;BME280;3141;49.234;9.326;2023-02-03T01:27:01;100850.16;;;9.94;75.21
6216;BME280;3141;49.234;9.326;2023-02-03T01:27:44;100850.88;;;9.74;75.64
6216;BME280;3141;49.234;9.326;2023-02-03T01:28:26;100862.16;;;9.65;76.10
6216;BME280;3141;49.234;9.326;2023-02-03T01:29:09;100875.97;;;9.57;76.46
6216;BME280;3141;49.234;9.326;2023-02-03T01:29:51;100871.56;;;9.58;76.51
6216;BME280;3141;49.234;9.326;2023-02-03T01:30:33;100870.09;;;9.54;76.87
6216;BME280;3141;49.234;9.326;2023-02-03T01:31:22;100861.81;;;9.58;77.05
6216;BME280;3141;49.234;9.326;2023-02-03T01:32:04;100877.19;;;9.64;76.37
6216;BME280;3141;49.234;9.326;2023-02-03T01:32:47;100862.16;;;9.76;76.26
6216;BME280;3141;49.234;9.326;2023-02-03T01:33:29;100855.56;;;9.70;76.18
6216;BME280;3141;49.234;9.326;2023-02-03T01:34:13;100865.06;;;9.73;76.09
6216;BME280;3141;49.234;9.326;2023-02-03T01:34:57;100869.03;;;9.78;75.90
6216;BME280;3141;49.234;9.326;2023-02-03T01:35:39;100871.41;;;9.81;75.84
6216;BME280;3141;49.234;9.326;2023-02-03T01:36:24;100855.69;;;9.69;76.44
6216;BME280;3141;49.234;9.326;2023-02-03T01:37:06;100863.22;;;9.84;75.70
6216;BME280;3141;49.234;9.326;2023-02-03T01:37:48;100862.03;;;9.77;75.98
6216;BME280;3141;49.234;9.326;2023-02-03T01:38:31;100853.25;;;9.77;75.95
6216;BME280;3141;49.234;9.326;2023-02-03T01:39:13;100855.91;;;9.77;75.94
6216;BME280;3141;49.234;9.326;2023-02-03T01:39:55;100855.56;;;9.70;76.28
6216;BME280;3141;49.234;9.326;2023-02-03T01:40:42;100854.50;;;9.51;76.59
6216;BME280;3141;49.234;9.326;2023-02-03T01:41:28;100854.75;;;9.70;76.47
6216;BME280;3141;49.234;9.326;2023-02-03T01:42:14;100858.31;;;9.69;76.42
6216;BME280;3141;49.234;9.326;2023-02-03T01:42:57;100847.03;;;9.78;75.96
6216;BME280;3141;49.234;9.326;2023-02-03T01:43:43;100857.47;;;9.79;75.96
6216;BME280;3141;49.234;9.326;2023-02-03T01:44:45;100859.28;;;9.79;75.97
6216;BME280;3141;49.234;9.326;2023-02-03T01:45:28;100863.59;;;9.80;75.79
6216;BME280;3141;49.234;9.326;2023-02-03T01:47:02;100848.34;;;9.72;76.20
6216;BME280;3141;49.234;9.326;2023-02-03T01:47:50;100837.31;;;9.78;76.18
6216;BME280;3141;49.234;9.326;2023-02-03T01:48:33;100843.47;;;9.68;76.15
6216;BME280;3141;49.234;9.326;2023-02-03T01:49:24;100841.53;;;9.70;76.66
6216;BME280;3141;49.234;9.326;2023-02-03T01:50:21;100845.59;;;9.74;76.00
6216;BME280;3141;49.234;9.326;2023-02-03T01:51:05;100840.22;;;9.64;76.42
6216;BME280;3141;49.234;9.326;2023-02-03T01:51:48;100833.25;;;9.74;76.31
6216;BME280;3141;49.234;9.326;2023-02-03T01:52:31;100839.59;;;9.83;76.06
6216;BME280;3141;49.234;9.326;2023-02-03T01:53:14;100839.84;;;9.80;76.02
6216;BME280;3141;49.234;9.326;2023-02-03T01:53:56;100835.28;;;9.82;75.89
6216;BME280;3141;49.234;9.326;2023-02-03T01:54:43;100834.31;;;9.72;76.21
6216;BME280;3141;49.234;9.326;2023-02-03T01:55:32;100831.06;;;9.68;76.47
6216;BME280;3141;49.234;9.326;2023-02-03T01:56:16;100821.84;;;9.74;76.07
6216;BME280;3141;49.234;9.326;2023-02-03T01:57:03;100819.13;;;9.96;75.49
6216;BME280;3141;49.234;9.326;2023-02-03T01:57:55;100824.34;;;9.86;75.68
6216;BME280;3141;49.234;9.326;2023-02-03T01:58:39;100824.53;;;9.94;75.21
6216;BME280;3141;49.234;9.326;2023-02-03T01:59:23;100815.59;;;9.75;76.32
6216;BME280;3141;49.234;9.326;2023-02-03T02:00:07;100817.47;;;9.95;75.95
6216;BME280;3141;49.234;9.326;2023-02-03T02:00:51;100809.56;;;9.84;76.22
6216;BME280;3141;49.234;9.326;2023-02-03T02:01:34;100824.97;;;9.68;76.53
6216;BME280;3141;49.234;9.326;2023-02-03T02:02:16;100815.47;;;9.65;76.61
6216;BME280;3141;49.234;9.326;2023-02-03T02:02:59;100811.28;;;9.74;76.38
6216;BME280;3141;49.234;9.326;2023-02-03T02:03:53;100807.69;;;9.75;76.65
6216;BME280;3141;49.234;9.326;2023-02-03T02:04:57;100810.06;;;9.78;76.05
6216;BME280;3141;49.234;9.326;2023-02-03T02:05:49;100813.09;;;9.73;76.55
6216;BME280;3141;49.234;9.326;2023-02-03T02:06:33;100812.84;;;9.76;76.49
6216;BME280;3141;49.234;9.326;2023-02-03T02:07:15;100803.72;;;9.58;77.29
6216;BME280;3141;49.234;9.326;2023-02-03T02:07:59;100803.59;;;9.71;76.96
6216;BME280;3141;49.234;9.326;2023-02-03T02:08:45;100801.94;;;9.70;76.84
6216;BME280;3141;49.234;9.326;2023-02-03T02:09:29;100798.31;;;9.71;76.48
6216;BME280;3141;49.234;9.326;2023-02-03T02:10:11;100804.41;;;9.82;76.21
6216;BME280;3141;49.234;9.326;2023-02-03T02:10:54;100802.28;;;9.65;76.50
6216;BME280;3141;49.234;9.326;2023-02-03T02:11:37;100795.94;;;9.57;77.24
6216;BME280;3141;49.234;9.326;2023-02-03T02:12:19;100790.59;;;9.79;76.47
6216;BME280;3141;49.234;9.326;2023-02-03T02:13:02;100781.50;;;9.72;76.66
6216;BME280;3141;49.234;9.326;2023-02-03T02:13:46;100779.22;;;9.78;76.40
6216;BME280;3141;49.234;9.326;2023-02-03T02:14:29;100777.34;;;9.58;76.80
6216;BME280;3141;49.234;9.326;2023-02-03T02:15:11;100760.75;;;9.67;76.75
6216;BME280;3141;49.234;9.326;2023-02-03T02:17:05;100746.44;;;9.81;76.59
6216;BME280;3141;49.234;9.326;2023-02-03T02:18:09;100734.25;;;10.00;75.68
6216;BME280;3141;49.234;9.326;2023-02-03T02:19:33;100734.03;;;9.61;76.74
6216;BME280;3141;49.234;9.326;2023-02-03T02:20:46;100724.72;;;9.77;76.92
6216;BME280;3141;49.234;9.326;2023-02-03T02:21:51;100735.16;;;9.79;76.47
6216;BME280;3141;49.234;9.326;2023-02-03T02:22:58;100750.91;;;9.69;76.98
6216;BME280;3141;49.234;9.326;2023-02-03T02:24:04;100761.28;;;9.50;77.24
6216;BME280;3141;49.234;9.326;2023-02-03T02:25:03;100776.38;;;9.59;77.11
6216;BME280;3141;49.234;9.326;2023-02-03T02:26:15;100793.16;;;9.58;76.99
6216;BME280;3141;49.234;9.326;2023-02-03T02:27:11;100780.34;;;9.54;76.98
6216;BME280;3141;49.234;9.326;2023-02-03T02:28:31;100792.56;;;9.66;77.35
6216;BME280;3141;49.234;9.326;2023-02-03T02:29:34;100789.72;;;9.47;77.50
6216;BME280;3141;49.234;9.326;2023-02-03T02:30:35;100799.91;;;9.51;77.59
6216;BME280;3141;49.234;9.326;2023-02-03T02:31:42;100791.38;;;9.48;78.04
6216;BME280;3141;49.234;9.326;2023-02-03T02:33:36;100773.38;;;9.64;76.83
6216;BME280;3141;49.234;9.326;2023-02-03T02:34:46;100778.13;;;9.81;76.79
6216;BME280;3141;49.234;9.326;2023-02-03T02:35:44;100774.44;;;9.72;76.46
6216;BME280;3141;49.234;9.326;2023-02-03T02:36:39;100784.31;;;9.59;77.14
6216;BME280;3141;49.234;9.326;2023-02-03T02:37:37;100776.00;;;9.53;77.49
6216;BME280;3141;49.234;9.326;2023-02-03T02:39:38;100771.50;;;9.44;77.99
6216;BME280;3141;49.234;9.326;2023-02-03T02:40:35;100771.22;;;9.58;77.95
6216;BME280;3141;49.234;9.326;2023-02-03T02:41:26;100774.72;;;9.47;77.77
6216;BME280;3141;49.234;9.326;2023-02-03T02:42:22;100762.81;;;9.53;77.73
6216;BME280;3141;49.234;9.326;2023-02-03T02:43:11;100768.59;;;9.47;78.25
6216;BME280;3141;49.234;9.326;2023-02-03T02:44:01;100753.03;;;9.44;78.13
6216;BME280;3141;49.234;9.326;2023-02-03T02:44:49;100766.09;;;9.45;78.39
6216;BME280;3141;49.234;9.326;2023-02-03T02:45:43;100772.22;;;9.46;78.04
6216;BME280;3141;49.234;9.326;2023-02-03T02:46:37;100764.75;;;9.51;78.38
6216;BME280;3141;49.234;9.326;2023-02-03T02:47:21;100762.22;;;9.49;77.80
6216;BME280;3141;49.234;9.326;2023-02-03T02:48:11;100760.69;;;9.47;78.20
6216;BME280;3141;49.234;9.326;2023-02-03T02:49:15;100754.44;;;9.48;78.29
6216;BME280;3141;49.234;9.326;2023-02-03T02:50:04;100740.03;;;9.52;78.01
6216;BME280;3141;49.234;9.326;2023-02-03T02:50:52;100743.41;;;9.54;77.95
6216;BME280;3141;49.234;9.326;2023-02-03T02:51:36;100745.78;;;9.57;77.58
6216;BME280;3141;49.234;9.326;2023-02-03T02:52:20;100748.47;;;9.46;77.99
6216;BME280;3141;49.234;9.326;2023-02-03T02:53:03;100747.16;;;9.40;77.90
6216;BME280;3141;49.234;9.326;2023-02-03T02:53:51;100750.00;;;9.48;78.27
6216;BME280;3141;49.234;9.326;2023-02-03T02:54:38;100744.38;;;9.42;78.35
6216;BME280;3141;49.234;9.326;2023-02-03T02:55:28;100753.94;;;9.54;78.01
6216;BME280;3141;49.234;9.326;2023-02-03T02:56:13;100745.31;;;9.41;78.53
6216;BME280;3141;49.234;9.326;2023-02-03T02:56:58;100749.88;;;9.61;77.79
6216;BME280;3141;49.234;9.326;2023-02-03T02:57:42;100748.41;;;9.57;77.69
6216;BME280;3141;49.234;9.326;2023-02-03T02:58:27;100752.75;;;9.47;77.86
6216;BME280;3141;49.234;9.326;2023-02-03T02:59:11;100738.97;;;9.54;77.91
6216;BME280;3141;49.234;9.326;2023-02-03T02:59:54;100741.00;;;9.51;78.02
6216;BME280;3141;49.234;9.326;2023-02-03T03:00:37;100736.94;;;9.47;78.13
6216;BME280;3141;49.234;9.326;2023-02-03T03:01:21;100737.66;;;9.38;78.26
6216;BME280;3141;49.234;9.326;2023-02-03T03:02:04;100738.97;;;9.43;78.25
6216;BME280;3141;49.234;9.326;2023-02-03T03:02:46;100739.19;;;9.51;78.27
6216;BME280;3141;49.234;9.326;2023-02-03T03:03:29;100736.69;;;9.50;77.77
6216;BME280;3141;49.234;9.326;2023-02-03T03:04:13;100733.78;;;9.53;78.17
6216;BME280;3141;49.234;9.326;2023-02-03T03:04:57;100738.28;;;9.30;78.74
6216;BME280;3141;49.234;9.326;2023-02-03T03:05:41;100740.41;;;9.36;78.68
6216;BME280;3141;49.234;9.326;2023-02-03T03:06:35;100750.00;;;9.48;78.44
6216;BME280;3141;49.234;9.326;2023-02-03T03:07:23;100755.28;;;9.48;78.50
6216;BME280;3141;49.234;9.326;2023-02-03T03:08:07;100758.03;;;9.47;78.25
6216;BME280;3141;49.234;9.326;2023-02-03T03:08:52;100761.63;;;9.57;78.27
6216;BME280;3141;49.234;9.326;2023-02-03T03:09:43;100758.72;;;9.60;77.71
6216;BME280;3141;49.234;9.326;2023-02-03T03:10:30;100764.97;;;9.59;77.70
6216;BME280;3141;49.234;9.326;2023-02-03T03:11:14;100767.63;;;9.48;77.96
6216;BME280;3141;49.234;9.326;2023-02-03T03:12:03;100771.59;;;9.53;78.13
6216;BME280;3141;49.234;9.326;2023-02-03T03:12:53;100776.13;;;9.62;77.87
6216;BME280;3141;49.234;9.326;2023-02-03T03:13:42;100775.63;;;9.68;77.49
6216;BME280;3141;49.234;9.326;2023-02-03T03:14:27;100782.22;;;9.74;77.21
6216;BME280;3141;49.234;9.326;2023-02-03T03:15:25;100780.31;;;9.65;77.70
6216;BME280;3141;49.234;9.326;2023-02-03T03:16:09;100778.31;;;9.57;77.79
6216;BME280;3141;49.234;9.326;2023-02-03T03:16:56;100781.66;;;9.48;77.88
6216;BME280;3141;49.234;9.326;2023-02-03T03:17:47;100777.72;;;9.54;78.37
6216;BME280;3141;49.234;9.326;2023-02-03T03:18:35;100782.94;;;9.65;77.72
6216;BME280;3141;49.234;9.326;2023-02-03T03:19:23;100775.78;;;9.56;78.18
6216;BME280;3141;49.234;9.326;2023-02-03T03:20:11;100774.56;;;9.60;77.60
6216;BME280;3141;49.234;9.326;2023-02-03T03:20:57;100784.41;;;9.69;77.77
6216;BME280;3141;49.234;9.326;2023-02-03T03:21:53;100790.91;;;9.54;78.16
6216;BME280;3141;49.234;9.326;2023-02-03T03:22:42;100795.00;;;9.47;78.37
6216;BME280;3141;49.234;9.326;2023-02-03T03:23:31;100791.16;;;9.40;79.27
6216;BME280;3141;49.234;9.326;2023-02-03T03:24:18;100790.44;;;9.38;79.11
6216;BME280;3141;49.234;9.326;2023-02-03T03:25:29;100782.78;;;9.46;79.10
6216;BME280;3141;49.234;9.326;2023-02-03T03:27:03;100796.66;;;9.48;78.95
6216;BME280;3141;49.234;9.326;2023-02-03T03:27:52;100795.69;;;9.60;78.77
6216;BME280;3141;49.234;9.326;2023-02-03T03:28:47;100798.78;;;9.65;78.52
6216;BME280;3141;49.234;9.326;2023-02-03T03:29:34;100809.13;;;9.68;78.27
6216;BME280;3141;49.234;9.326;2023-02-03T03:30:22;100805.06;;;9.53;79.27
6216;BME280;3141;49.234;9.326;2023-02-03T03:31:05;100800.28;;;9.58;79.41
6216;BME280;3141;49.234;9.326;2023-02-03T03:31:47;100802.66;;;9.61;79.41
6216;BME280;3141;49.234;9.326;2023-02-03T03:32:30;100801.59;;;9.52;79.13
6216;BME280;3141;49.234;9.326;2023-02-03T03:33:14;100794.88;;;9.37;80.03
6216;BME280;3141;49.234;9.326;2023-02-03T03:33:56;100807.84;;;9.40;80.40
6216;BME280;3141;49.234;9.326;2023-02-03T03:34:39;100807.09;;;9.27;80.94
6216;BME280;3141;49.234;9.326;2023-02-03T03:35:22;100809.38;;;9.43;80.74
6216;BME280;3141;49.234;9.326;2023-02-03T03:36:24;100813.94;;;9.41;80.47
6216;BME280;3141;49.234;9.326;2023-02-03T03:37:59;100824.16;;;9.34;80.65
6216;BME280;3141;49.234;9.326;2023-02-03T03:38:54;100809.63;;;9.40;80.75
6216;BME280;3141;49.234;9.326;2023-02-03T03:39:46;100821.88;;;9.29;80.82
6216;BME280;3141;49.234;9.326;2023-02-03T03:40:35;100821.63;;;9.32;80.62
6216;BME280;3141;49.234;9.326;2023-02-03T03:41:34;100817.09;;;9.46;80.29
6216;BME280;3141;49.234;9.326;2023-02-03T03:42:35;100827.63;;;9.68;79.78
6216;BME280;3141;49.234;9.326;2023-02-03T03:43:22;100836.75;;;9.42;79.94
6216;BME280;3141;49.234;9.326;2023-02-03T03:44:10;100820.78;;;9.43;80.40
6216;BME280;3141;49.234;9.326;2023-02-03T03:46:05;100827.25;;;9.39;80.37
6216;BME280;3141;49.234;9.326;2023-02-03T03:47:02;100829.66;;;9.31;80.97
6216;BME280;3141;49.234;9.326;2023-02-03T03:47:54;100827.13;;;9.41;81.05
6216;BME280;3141;49.234;9.326;2023-02-03T03:48:48;100815.50;;;9.43;80.85
6216;BME280;3141;49.234;9.326;2023-02-03T03:49:32;100831.25;;;9.33;80.94
6216;BME280;3141;49.234;9.326;2023-02-03T03:50:22;100822.09;;;9.38;81.14
6216;BME280;3141;49.234;9.326;2023-02-03T03:51:13;100818.28;;;9.42;81.60
6216;BME280;3141;49.234;9.326;2023-02-03T03:52:02;100816.56;;;9.41;81.06
6216;BME280;3141;49.234;9.326;2023-02-03T03:52:46;100821.63;;;9.44;81.18
6216;BME280;3141;49.234;9.326;2023-02-03T03:53:32;100816.81;;;9.38;81.78
6216;BME280;3141;49.234;9.326;2023-02-03T03:54:18;100806.16;;;9.39;81.59
6216;BME280;3141;49.234;9.326;2023-02-03T03:55:07;100812.16;;;9.41;81.40
6216;BME280;3141;49.234;9.326;2023-02-03T03:55:51;100806.53;;;9.46;81.64
6216;BME280;3141;49.234;9.326;2023-02-03T03:56:40;100808.19;;;9.58;81.25
6216;BME280;3141;49.234;9.326;2023-02-03T03:57:30;100804.72;;;9.35;81.33
6216;BME280;3141;49.234;9.326;2023-02-03T03:58:19;100817.66;;;9.49;81.48
6216;BME280;3141;49.234;9.326;2023-02-03T03:59:05;100813.94;;;9.41;81.66
6216;BME280;3141;49.234;9.326;2023-02-03T03:59:50;100823.91;;;9.48;81.74
6216;BME280;3141;49.234;9.326;2023-02-03T04:00:34;100823.56;;;9.42;81.80
6216;BME280;3141;49.234;9.326;2023-02-03T04:01:18;100825.47;;;9.40;82.33
6216;BME280;3141;49.234;9.326;2023-02-03T04:02:02;100827.25;;;9.39;82.17
6216;BME280;3141;49.234;9.326;2023-02-03T04:02:50;100826.91;;;9.44;81.85
6216;BME280;3141;49.234;9.326;2023-02-03T04:03:46;100815.41;;;9.22;82.68
6216;BME280;3141;49.234;9.326;2023-02-03T04:04:32;100821.88;;;9.29;82.88
6216;BME280;3141;49.234;9.326;2023-02-03T04:05:16;100816.34;;;9.32;82.60
6216;BME280;3141;49.234;9.326;2023-02-03T04:05:58;100822.72;;;9.41;82.67
6216;BME280;3141;49.234;9.326;2023-02-03T04:06:41;100816.59;;;9.29;82.76
6216;BME280;3141;49.234;9.326;2023-02-03T04:07:36;100825.22;;;9.43;82.58
6216;BME280;3141;49.234;9.326;2023-02-03T04:08:19;100802.91;;;9.35;82.71
6216;BME280;3141;49.234;9.326;2023-02-03T04:09:01;100804.25;;;9.30;83.17
6216;BME280;3141;49.234;9.326;2023-02-03T04:09:44;100813.94;;;9.52;82.51
6216;BME280;3141;49.234;9.326;2023-02-03T04:10:30;100806.88;;;9.52;82.00
6216;BME280;3141;49.234;9.326;2023-02-03T04:11:13;100807.84;;;9.40;82.62
6216;BME280;3141;49.234;9.326;2023-02-03T04:12:22;100794.75;;;9.27;83.80
6216;BME280;3141;49.234;9.326;2023-02-03T04:13:05;100801.22;;;9.23;83.63
6216;BME280;3141;49.234;9.326;2023-02-03T04:13:47;100821.03;;;9.29;83.61
6216;BME280;3141;49.234;9.326;2023-02-03T04:14:35;100804.50;;;9.16;84.61
6216;BME280;3141;49.234;9.326;2023-02-03T04:15:19;100805.09;;;9.19;84.61
6216;BME280;3141;49.234;9.326;2023-02-03T04:16:02;100800.28;;;9.13;85.17
6216;BME280;3141;49.234;9.326;2023-02-03T04:16:44;100808.19;;;9.24;84.83
6216;BME280;3141;49.234;9.326;2023-02-03T04:17:26;100796.69;;;9.25;84.47
6216;BME280;3141;49.234;9.326;2023-02-03T04:18:11;100805.19;;;9.29;84.28
6216;BME280;3141;49.234;9.326;2023-02-03T04:18:54;100801.97;;;9.37;84.20